Date,TemperatureHighF,TemperatureAvgF,TemperatureLowF,DewpointHighF,DewpointAvgF,DewpointLowF,HumidityHigh,HumidityAvg,HumidityLow,PressureMaxIn,PressureMinIn,WindSpeedMaxMPH,WindSpeedAvgMPH,GustSpeedMaxMPH,PrecipitationSumIn
2013-11-1,67.3,63.8,57.4,62.8,59.5,54.4,92,86,79,29.42,29.21,8,1,8,0.19
2013-11-2,65.5,55.1,46.0,56.5,48.1,35.5,93,79,50,29.50,29.25,9,0,9,0.00
2013-11-3,46.0,40.1,36.3,37.8,33.4,31.2,84,77,67,29.71,29.50,0,0,0,0.00
2013-11-4,55.8,46.8,38.5,36.0,31.4,27.3,64,55,47,30.04,29.97,3,0,3,0.00
2013-11-5,57.0,45.8,33.6,45.4,36.6,25.5,85,71,60,30.07,29.94,9,0,9,0.00
2013-11-6,69.1,53.5,44.1,55.1,46.7,40.1,88,79,61,29.94,29.65,3,0,3,0.00
2013-11-7,63.1,50.3,41.4,56.3,45.4,30.8,90,84,56,29.67,29.50,4,0,4,0.00
2013-11-8,53.8,40.1,30.2,35.7,25.7,22.3,80,58,38,29.83,29.66,4,0,4,0.00
2013-11-9,51.8,31.8,27.1,37.0,24.0,20.8,81,73,57,29.89,29.83,0,0,0,0.00
2013-11-17,66.4,59.2,54.5,60.3,55.9,51.5,93,89,79,29.73,29.40,2,0,2,0.06
2013-11-18,70.7,60.6,48.0,62.1,49.8,31.7,93,70,43,29.52,29.35,6,1,6,0.04
2013-11-19,56.1,45.5,39.4,31.8,27.9,25.0,57,51,38,29.79,29.53,3,0,3,0.00
2013-11-20,52.2,41.3,32.2,32.6,27.7,22.5,67,59,47,29.97,29.81,6,1,6,0.00
2013-11-21,57.4,47.4,40.1,43.8,37.6,29.0,74,69,60,30.00,29.90,6,1,6,0.00
2013-11-22,64.4,55.3,48.0,56.8,49.0,40.5,89,79,73,29.90,29.62,0,0,0,0.00
2013-11-23,58.8,50.1,37.9,54.7,32.2,20.4,90,51,41,29.73,29.58,15,2,15,0.00
2013-11-24,41.7,31.4,23.2,20.4,11.0,3.5,53,43,30,30.02,29.73,16,2,16,0.00
2013-11-25,40.8,29.6,17.2,16.8,10.7,3.6,59,45,35,30.05,29.85,2,0,2,0.00
2013-11-26,42.8,36.5,31.3,40.2,30.0,16.8,91,79,48,29.86,29.13,14,1,14,2.10
2013-11-27,43.5,36.2,25.5,41.4,30.3,15.3,92,79,64,29.69,29.06,16,3,16,0.24
2013-11-28,50.7,29.0,19.6,29.5,17.8,12.2,76,63,43,29.96,29.69,4,0,6,0.00
2013-11-29,56.8,34.0,21.7,32.2,21.9,15.2,79,62,39,30.12,29.95,8,1,8,0.00
2013-11-30,55.0,33.4,25.2,32.0,22.0,18.0,76,63,41,30.15,29.88,7,1,7,0.00